sensor_id;sensor_type;location;lat;lon;timestamp;temperature;humidity
32201;DHT22;18701;45.588;5.288;2023-03-03T00:00:48;4.80;99.90
32201;DHT22;18701;45.588;5.288;2023-03-03T00:03:21;4.80;99.90
32201;DHT22;18701;45.588;5.288;2023-03-03T00:05:47;4.80;99.90
32201;DHT22;18701;45.588;5.288;2023-03-03T00:08:14;4.80;99.90
32201;DHT22;18701;45.588;5.288;2023-03-03T00:10:39;4.70;99.90
32201;DHT22;18701;45.588;5.288;2023-03-03T00:13:19;4.90;99.90
32201;DHT22;18701;45.588;5.288;2023-03-03T00:15:46;5.00;99.90
32201;DHT22;18701;45.588;5.288;2023-03-03T00:20:52;4.70;99.90
32201;DHT22;18701;45.588;5.288;2023-03-03T00:23:36;4.80;99.90
32201;DHT22;18701;45.588;5.288;2023-03-03T00:26:14;4.70;99.90
32201;DHT22;18701;45.588;5.288;2023-03-03T00:28:49;4.60;99.90
32201;DHT22;18701;45.588;5.288;2023-03-03T00:31:32;4.80;99.90
32201;DHT22;18701;45.588;5.288;2023-03-03T00:34:21;4.90;99.90
32201;DHT22;18701;45.588;5.288;2023-03-03T00:36:52;4.80;99.90
32201;DHT22;18701;45.588;5.288;2023-03-03T00:39:38;5.00;99.90
32201;DHT22;18701;45.588;5.288;2023-03-03T00:42:15;5.00;99.90
32201;DHT22;18701;45.588;5.288;2023-03-03T00:44:46;4.90;99.90
32201;DHT22;18701;45.588;5.288;2023-03-03T00:47:35;4.70;99.90
32201;DHT22;18701;45.588;5.288;2023-03-03T00:52:33;4.60;99.90
32201;DHT22;18701;45.588;5.288;2023-03-03T00:54:59;4.40;99.90
32201;DHT22;18701;45.588;5.288;2023-03-03T00:57:25;4.40;99.90
32201;DHT22;18701;45.588;5.288;2023-03-03T00:59:50;4.50;99.90
32201;DHT22;18701;45.588;5.288;2023-03-03T01:02:16;4.30;99.90
32201;DHT22;18701;45.588;5.288;2023-03-03T01:04:44;4.30;99.90
32201;DHT22;18701;45.588;5.288;2023-03-03T01:07:13;4.40;99.90
32201;DHT22;18701;45.588;5.288;2023-03-03T01:09:38;4.40;99.90
32201;DHT22;18701;45.588;5.288;2023-03-03T01:12:04;4.40;99.90
32201;DHT22;18701;45.588;5.288;2023-03-03T01:14:30;4.40;99.90
32201;DHT22;18701;45.588;5.288;2023-03-03T01:16:57;4.50;99.90
32201;DHT22;18701;45.588;5.288;2023-03-03T01:19:23;4.40;99.90
32201;DHT22;18701;45.588;5.288;2023-03-03T01:21:49;4.60;99.90
32201;DHT22;18701;45.588;5.288;2023-03-03T01:24:14;4.60;99.90
32201;DHT22;18701;45.588;5.288;2023-03-03T01:26:40;4.40;99.90
32201;DHT22;18701;45.588;5.288;2023-03-03T01:29:05;4.30;99.90
32201;DHT22;18701;45.588;5.288;2023-03-03T01:31:31;4.30;99.90
32201;DHT22;18701;45.588;5.288;2023-03-03T01:33:57;4.00;99.90
32201;DHT22;18701;45.588;5.288;2023-03-03T01:36:24;4.10;99.90
32201;DHT22;18701;45.588;5.288;2023-03-03T01:38:50;4.10;99.90
32201;DHT22;18701;45.588;5.288;2023-03-03T01:41:16;3.90;99.90
32201;DHT22;18701;45.588;5.288;2023-03-03T01:43:43;3.80;99.90
32201;DHT22;18701;45.588;5.288;2023-03-03T01:49:00;3.70;99.90
32201;DHT22;18701;45.588;5.288;2023-03-03T01:51:44;4.00;99.90
32201;DHT22;18701;45.588;5.288;2023-03-03T01:54:16;3.90;99.90
32201;DHT22;18701;45.588;5.288;2023-03-03T01:56:43;4.00;99.90
32201;DHT22;18701;45.588;5.288;2023-03-03T01:59:21;4.40;99.90
32201;DHT22;18701;45.588;5.288;2023-03-03T02:01:48;4.20;99.90
32201;DHT22;18701;45.588;5.288;2023-03-03T02:04:15;4.00;99.90
32201;DHT22;18701;45.588;5.288;2023-03-03T02:06:46;3.60;99.90
32201;DHT22;18701;45.588;5.288;2023-03-03T02:09:31;3.60;99.90
32201;DHT22;18701;45.588;5.288;2023-03-03T02:12:01;4.00;99.90
32201;DHT22;18701;45.588;5.288;2023-03-03T02:14:27;4.10;99.90
32201;DHT22;18701;45.588;5.288;2023-03-03T02:16:53;4.10;99.90
32201;DHT22;18701;45.588;5.288;2023-03-03T02:22:08;4.00;99.90
32201;DHT22;18701;45.588;5.288;2023-03-03T02:24:43;3.90;99.90
32201;DHT22;18701;45.588;5.288;2023-03-03T02:27:10;3.80;99.90
32201;DHT22;18701;45.588;5.288;2023-03-03T02:29:35;3.70;99.90
32201;DHT22;18701;45.588;5.288;2023-03-03T02:32:01;3.80;99.90
32201;DHT22;18701;45.588;5.288;2023-03-03T02:34:26;3.90;99.90
32201;DHT22;18701;45.588;5.288;2023-03-03T02:36:52;3.80;99.90
32201;DHT22;18701;45.588;5.288;2023-03-03T02:39:20;3.60;99.90
32201;DHT22;18701;45.588;5.288;2023-03-03T02:41:59;3.60;99.90
32201;DHT22;18701;45.588;5.288;2023-03-03T02:44:29;3.60;99.90
32201;DHT22;18701;45.588;5.288;2023-03-03T02:46:56;3.70;99.90
32201;DHT22;18701;45.588;5.288;2023-03-03T02:49:24;3.60;99.90
32201;DHT22;18701;45.588;5.288;2023-03-03T02:51:50;3.60;99.90
32201;DHT22;18701;45.588;5.288;2023-03-03T02:54:18;3.50;99.90
32201;DHT22;18701;45.588;5.288;2023-03-03T02:56:44;3.50;99.90
32201;DHT22;18701;45.588;5.288;2023-03-03T02:59:11;3.40;99.90
32201;DHT22;18701;45.588;5.288;2023-03-03T03:01:37;3.40;99.90
32201;DHT22;18701;45.588;5.288;2023-03-03T03:04:10;3.40;99.90
32201;DHT22;18701;45.588;5.288;2023-03-03T03:06:37;3.50;99.90
32201;DHT22;18701;45.588;5.288;2023-03-03T03:09:04;3.50;99.90
32201;DHT22;18701;45.588;5.288;2023-03-03T03:11:30;3.30;99.90
32201;DHT22;18701;45.588;5.288;2023-03-03T03:13:55;3.30;99.90
32201;DHT22;18701;45.588;5.288;2023-03-03T03:16:21;3.40;99.90
32201;DHT22;18701;45.588;5.288;2023-03-03T03:18:47;3.30;99.90
32201;DHT22;18701;45.588;5.288;2023-03-03T03:21:14;3.30;99.90
32201;DHT22;18701;45.588;5.288;2023-03-03T03:23:40;3.30;99.90
32201;DHT22;18701;45.588;5.288;2023-03-03T03:26:07;3.20;99.90
32201;DHT22;18701;45.588;5.288;2023-03-03T03:28:33;3.10;99.90
32201;DHT22;18701;45.588;5.288;2023-03-03T03:30:59;3.20;99.90
32201;DHT22;18701;45.588;5.288;2023-03-03T03:33:25;3.20;99.90
32201;DHT22;18701;45.588;5.288;2023-03-03T03:35:53;3.20;99.90
32201;DHT22;18701;45.588;5.288;2023-03-03T03:38:20;3.30;99.90
32201;DHT22;18701;45.588;5.288;2023-03-03T03:40:46;3.20;99.90
32201;DHT22;18701;45.588;5.288;2023-03-03T03:43:12;3.10;99.90
32201;DHT22;18701;45.588;5.288;2023-03-03T03:45:40;3.00;99.90
32201;DHT22;18701;45.588;5.288;2023-03-03T03:48:06;2.90;99.90
32201;DHT22;18701;45.588;5.288;2023-03-03T03:50:32;2.90;99.90
32201;DHT22;18701;45.588;5.288;2023-03-03T03:52:57;2.90;99.90
32201;DHT22;18701;45.588;5.288;2023-03-03T03:55:23;2.90;99.90
32201;DHT22;18701;45.588;5.288;2023-03-03T03:57:49;2.80;99.90
32201;DHT22;18701;45.588;5.288;2023-03-03T04:00:15;2.80;99.90
32201;DHT22;18701;45.588;5.288;2023-03-03T04:02:41;2.90;99.90
32201;DHT22;18701;45.588;5.288;2023-03-03T04:05:06;2.80;99.90
32201;DHT22;18701;45.588;5.288;2023-03-03T04:07:32;2.80;99.90
32201;DHT22;18701;45.588;5.288;2023-03-03T04:09:58;2.90;99.90
32201;DHT22;18701;45.588;5.288;2023-03-03T04:12:24;2.90;99.90
32201;DHT22;18701;45.588;5.288;2023-03-03T04:14:49;2.80;99.90
32201;DHT22;18701;45.588;5.288;2023-03-03T04:17:20;2.70;99.90
32201;DHT22;18701;45.588;5.288;2023-03-03T04:19:46;2.60;99.90
32201;DHT22;18701;45.588;5.288;2023-03-03T04:22:13;2.70;99.90
32201;DHT22;18701;45.588;5.288;2023-03-03T04:24:40;2.50;99.90
32201;DHT22;18701;45.588;5.288;2023-03-03T04:27:06;2.50;99.90
32201;DHT22;18701;45.588;5.288;2023-03-03T04:29:34;2.50;99.90
32201;DHT22;18701;45.588;5.288;2023-03-03T04:32:00;2.50;99.90
32201;DHT22;18701;45.588;5.288;2023-03-03T04:34:25;2.60;99.90
32201;DHT22;18701;45.588;5.288;2023-03-03T04:36:51;2.50;99.90
32201;DHT22;18701;45.588;5.288;2023-03-03T04:39:17;2.50;99.90
32201;DHT22;18701;45.588;5.288;2023-03-03T04:41:43;2.50;99.90
32201;DHT22;18701;45.588;5.288;2023-03-03T04:44:08;2.50;99.90
32201;DHT22;18701;45.588;5.288;2023-03-03T04:46:34;2.50;99.90
32201;DHT22;18701;45.588;5.288;2023-03-03T04:49:00;2.50;99.90
32201;DHT22;18701;45.588;5.288;2023-03-03T04:51:25;2.40;99.90
32201;DHT22;18701;45.588;5.288;2023-03-03T04:53:51;2.30;99.90
32201;DHT22;18701;45.588;5.288;2023-03-03T04:56:17;2.30;99.90
32201;DHT22;18701;45.588;5.288;2023-03-03T04:58:42;2.30;99.90
32201;DHT22;18701;45.588;5.288;2023-03-03T05:01:12;2.40;99.90
32201;DHT22;18701;45.588;5.288;2023-03-03T05:03:39;2.20;99.90
32201;DHT22;18701;45.588;5.288;2023-03-03T05:06:05;2.20;99.90
32201;DHT22;18701;45.588;5.288;2023-03-03T05:08:31;2.30;99.90
32201;DHT22;18701;45.588;5.288;2023-03-03T05:10:57;2.30;99.90
32201;DHT22;18701;45.588;5.288;2023-03-03T05:13:24;2.30;99.90
32201;DHT22;18701;45.588;5.288;2023-03-03T05:15:53;2.20;99.90
32201;DHT22;18701;45.588;5.288;2023-03-03T05:18:20;2.20;99.90
32201;DHT22;18701;45.588;5.288;2023-03-03T05:20:46;2.30;99.90
32201;DHT22;18701;45.588;5.288;2023-03-03T05:23:12;2.20;99.90
32201;DHT22;18701;45.588;5.288;2023-03-03T05:25:40;2.10;99.90
32201;DHT22;18701;45.588;5.288;2023-03-03T05:28:07;2.20;99.90
32201;DHT22;18701;45.588;5.288;2023-03-03T05:30:32;2.10;99.90
32201;DHT22;18701;45.588;5.288;2023-03-03T05:32:58;2.10;99.90
32201;DHT22;18701;45.588;5.288;2023-03-03T05:35:24;2.10;99.90
32201;DHT22;18701;45.588;5.288;2023-03-03T05:37:50;2.20;99.90
32201;DHT22;18701;45.588;5.288;2023-03-03T05:40:17;2.10;99.90
32201;DHT22;18701;45.588;5.288;2023-03-03T05:42:43;2.00;99.90
32201;DHT22;18701;45.588;5.288;2023-03-03T05:45:09;2.10;99.90
32201;DHT22;18701;45.588;5.288;2023-03-03T05:47:35;2.00;99.90
32201;DHT22;18701;45.588;5.288;2023-03-03T05:50:00;1.80;99.90
32201;DHT22;18701;45.588;5.288;2023-03-03T05:52:26;1.90;99.90
32201;DHT22;18701;45.588;5.288;2023-03-03T05:54:52;1.80;99.90
32201;DHT22;18701;45.588;5.288;2023-03-03T05:57:17;1.90;99.90
32201;DHT22;18701;45.588;5.288;2023-03-03T05:59:43;1.90;99.90
32201;DHT22;18701;45.588;5.288;2023-03-03T06:02:08;1.90;99.90
32201;DHT22;18701;45.588;5.288;2023-03-03T06:04:34;1.80;99.90
32201;DHT22;18701;45.588;5.288;2023-03-03T06:07:00;2.00;99.90
32201;DHT22;18701;45.588;5.288;2023-03-03T06:09:27;2.00;99.90
32201;DHT22;18701;45.588;5.288;2023-03-03T06:11:53;2.00;99.90
32201;DHT22;18701;45.588;5.288;2023-03-03T06:14:19;1.90;99.90
32201;DHT22;18701;45.588;5.288;2023-03-03T06:16:48;2.00;99.90
32201;DHT22;18701;45.588;5.288;2023-03-03T06:19:14;2.00;99.90
32201;DHT22;18701;45.588;5.288;2023-03-03T06:21:40;2.00;99.90
32201;DHT22;18701;45.588;5.288;2023-03-03T06:24:06;1.80;99.90
32201;DHT22;18701;45.588;5.288;2023-03-03T06:26:32;1.80;99.90
32201;DHT22;18701;45.588;5.288;2023-03-03T06:28:58;1.90;99.90
32201;DHT22;18701;45.588;5.288;2023-03-03T06:31:25;1.80;99.90
32201;DHT22;18701;45.588;5.288;2023-03-03T06:33:50;1.70;99.90
32201;DHT22;18701;45.588;5.288;2023-03-03T06:36:17;1.80;99.90
32201;DHT22;18701;45.588;5.288;2023-03-03T06:38:43;1.80;99.90
32201;DHT22;18701;45.588;5.288;2023-03-03T06:41:09;1.80;99.90
32201;DHT22;18701;45.588;5.288;2023-03-03T06:43:36;1.80;99.90
32201;DHT22;18701;45.588;5.288;2023-03-03T06:46:02;1.80;99.90
32201;DHT22;18701;45.588;5.288;2023-03-03T06:48:31;1.90;99.90
32201;DHT22;18701;45.588;5.288;2023-03-03T06:51:02;1.80;99.90
32201;DHT22;18701;45.588;5.288;2023-03-03T06:53:33;1.70;99.90
32201;DHT22;18701;45.588;5.288;2023-03-03T06:55:59;1.80;99.90
32201;DHT22;18701;45.588;5.288;2023-03-03T06:58:26;1.90;99.90
32201;DHT22;18701;45.588;5.288;2023-03-03T07:00:58;1.70;99.90
32201;DHT22;18701;45.588;5.288;2023-03-03T07:03:34;1.90;99.90
32201;DHT22;18701;45.588;5.288;2023-03-03T07:06:00;1.90;99.90
32201;DHT22;18701;45.588;5.288;2023-03-03T07:08:30;2.00;99.90
32201;DHT22;18701;45.588;5.288;2023-03-03T07:11:01;2.00;99.90
32201;DHT22;18701;45.588;5.288;2023-03-03T07:13:32;2.10;99.90
32201;DHT22;18701;45.588;5.288;2023-03-03T07:16:00;2.10;99.90
32201;DHT22;18701;45.588;5.288;2023-03-03T07:18:52;2.10;99.90
32201;DHT22;18701;45.588;5.288;2023-03-03T07:21:24;2.00;99.90
32201;DHT22;18701;45.588;5.288;2023-03-03T07:23:51;2.10;99.90
32201;DHT22;18701;45.588;5.288;2023-03-03T07:26:20;2.10;99.90
32201;DHT22;18701;45.588;5.288;2023-03-03T07:28:55;2.00;99.90
32201;DHT22;18701;45.588;5.288;2023-03-03T07:33:52;2.00;99.90
32201;DHT22;18701;45.588;5.288;2023-03-03T07:36:29;2.30;99.90
32201;DHT22;18701;45.588;5.288;2023-03-03T07:39:52;2.50;99.90
32201;DHT22;18701;45.588;5.288;2023-03-03T07:42:39;2.50;99.90
32201;DHT22;18701;45.588;5.288;2023-03-03T07:47:47;2.70;99.90
32201;DHT22;18701;45.588;5.288;2023-03-03T07:50:15;2.70;99.90
32201;DHT22;18701;45.588;5.288;2023-03-03T07:52:55;2.80;99.90
32201;DHT22;18701;45.588;5.288;2023-03-03T08:03:20;2.80;99.90
32201;DHT22;18701;45.588;5.288;2023-03-03T08:05:49;2.70;99.90
32201;DHT22;18701;45.588;5.288;2023-03-03T08:08:28;3.00;99.90
32201;DHT22;18701;45.588;5.288;2023-03-03T08:10:59;3.10;99.90
32201;DHT22;18701;45.588;5.288;2023-03-03T08:13:39;3.20;99.90
32201;DHT22;18701;45.588;5.288;2023-03-03T08:18:48;3.30;99.90
32201;DHT22;18701;45.588;5.288;2023-03-03T08:21:22;3.40;99.90
32201;DHT22;18701;45.588;5.288;2023-03-03T08:23:49;3.30;99.90
32201;DHT22;18701;45.588;5.288;2023-03-03T08:26:19;3.50;99.90
32201;DHT22;18701;45.588;5.288;2023-03-03T08:28:45;3.60;99.90
32201;DHT22;18701;45.588;5.288;2023-03-03T08:31:11;3.70;99.90
32201;DHT22;18701;45.588;5.288;2023-03-03T08:33:37;3.90;99.90
32201;DHT22;18701;45.588;5.288;2023-03-03T08:36:04;3.80;99.90
32201;DHT22;18701;45.588;5.288;2023-03-03T08:38:30;3.90;99.90
32201;DHT22;18701;45.588;5.288;2023-03-03T08:40:56;3.90;99.90
32201;DHT22;18701;45.588;5.288;2023-03-03T08:43:21;4.00;99.90
32201;DHT22;18701;45.588;5.288;2023-03-03T08:45:50;3.90;99.90
32201;DHT22;18701;45.588;5.288;2023-03-03T08:48:17;4.20;99.90
32201;DHT22;18701;45.588;5.288;2023-03-03T08:50:43;4.10;99.90
32201;DHT22;18701;45.588;5.288;2023-03-03T08:53:09;4.30;99.90
32201;DHT22;18701;45.588;5.288;2023-03-03T08:55:35;4.50;99.90
32201;DHT22;18701;45.588;5.288;2023-03-03T08:58:00;4.70;99.90
32201;DHT22;18701;45.588;5.288;2023-03-03T09:00:26;4.90;99.90
32201;DHT22;18701;45.588;5.288;2023-03-03T09:02:52;4.70;99.90
32201;DHT22;18701;45.588;5.288;2023-03-03T09:05:19;5.00;99.90
32201;DHT22;18701;45.588;5.288;2023-03-03T09:07:45;4.60;99.90
32201;DHT22;18701;45.588;5.288;2023-03-03T09:10:14;4.80;99.90
32201;DHT22;18701;45.588;5.288;2023-03-03T09:12:45;4.90;99.90
32201;DHT22;18701;45.588;5.288;2023-03-03T09:15:27;4.80;99.90
32201;DHT22;18701;45.588;5.288;2023-03-03T09:17:57;5.00;99.90
32201;DHT22;18701;45.588;5.288;2023-03-03T09:22:52;4.80;99.90
32201;DHT22;18701;45.588;5.288;2023-03-03T09:25:33;5.00;99.90
32201;DHT22;18701;45.588;5.288;2023-03-03T09:28:00;4.60;99.90
32201;DHT22;18701;45.588;5.288;2023-03-03T09:30:36;5.00;99.90
32201;DHT22;18701;45.588;5.288;2023-03-03T09:33:29;5.20;99.90
32201;DHT22;18701;45.588;5.288;2023-03-03T09:36:02;4.80;99.90
32201;DHT22;18701;45.588;5.288;2023-03-03T09:38:32;5.20;99.90
32201;DHT22;18701;45.588;5.288;2023-03-03T09:48:55;5.80;99.90
32201;DHT22;18701;45.588;5.288;2023-03-03T09:51:43;5.90;99.90
32201;DHT22;18701;45.588;5.288;2023-03-03T09:54:26;6.00;99.90
32201;DHT22;18701;45.588;5.288;2023-03-03T09:57:09;6.20;99.90
32201;DHT22;18701;45.588;5.288;2023-03-03T09:59:43;6.20;99.90
32201;DHT22;18701;45.588;5.288;2023-03-03T10:02:25;6.30;99.90
32201;DHT22;18701;45.588;5.288;2023-03-03T10:10:10;6.80;99.90
32201;DHT22;18701;45.588;5.288;2023-03-03T10:18:28;7.30;99.90
32201;DHT22;18701;45.588;5.288;2023-03-03T10:31:49;8.30;99.90
32201;DHT22;18701;45.588;5.288;2023-03-03T10:37:02;7.80;99.90
32201;DHT22;18701;45.588;5.288;2023-03-03T10:40:19;8.10;99.90
32201;DHT22;18701;45.588;5.288;2023-03-03T10:42:32;8.00;99.90
32201;DHT22;18701;45.588;5.288;2023-03-03T10:53:38;7.60;99.90
32201;DHT22;18701;45.588;5.288;2023-03-03T10:56:25;7.70;99.90
32201;DHT22;18701;45.588;5.288;2023-03-03T11:01:57;8.70;99.90
32201;DHT22;18701;45.588;5.288;2023-03-03T11:10:02;8.70;99.90
32201;DHT22;18701;45.588;5.288;2023-03-03T11:15:23;9.20;99.90
32201;DHT22;18701;45.588;5.288;2023-03-03T11:21:00;9.00;99.90
32201;DHT22;18701;45.588;5.288;2023-03-03T11:37:09;8.40;99.90
32201;DHT22;18701;45.588;5.288;2023-03-03T11:39:37;8.50;99.90
32201;DHT22;18701;45.588;5.288;2023-03-03T11:44:51;8.00;99.90
32201;DHT22;18701;45.588;5.288;2023-03-03T11:47:37;7.80;99.90
32201;DHT22;18701;45.588;5.288;2023-03-03T11:50:30;7.90;99.90
32201;DHT22;18701;45.588;5.288;2023-03-03T11:55:45;7.50;99.90
32201;DHT22;18701;45.588;5.288;2023-03-03T12:00:55;7.50;99.90
32201;DHT22;18701;45.588;5.288;2023-03-03T12:03:48;7.60;99.90
32201;DHT22;18701;45.588;5.288;2023-03-03T12:09:33;7.40;99.90
32201;DHT22;18701;45.588;5.288;2023-03-03T12:12:08;7.60;99.90
32201;DHT22;18701;45.588;5.288;2023-03-03T12:23:25;7.60;99.90
32201;DHT22;18701;45.588;5.288;2023-03-03T12:28:51;7.80;99.90
32201;DHT22;18701;45.588;5.288;2023-03-03T12:34:43;8.00;99.90
32201;DHT22;18701;45.588;5.288;2023-03-03T12:37:38;7.90;99.90
32201;DHT22;18701;45.588;5.288;2023-03-03T12:40:15;7.70;99.90
32201;DHT22;18701;45.588;5.288;2023-03-03T12:43:05;7.70;99.90
32201;DHT22;18701;45.588;5.288;2023-03-03T12:48:44;7.90;99.90
32201;DHT22;18701;45.588;5.288;2023-03-03T12:56:48;8.00;99.90
32201;DHT22;18701;45.588;5.288;2023-03-03T12:59:41;7.90;99.90
32201;DHT22;18701;45.588;5.288;2023-03-03T13:02:42;8.20;99.90
32201;DHT22;18701;45.588;5.288;2023-03-03T13:08:12;7.80;99.90
32201;DHT22;18701;45.588;5.288;2023-03-03T13:13:26;7.90;99.90
32201;DHT22;18701;45.588;5.288;2023-03-03T13:16:04;8.00;99.90
32201;DHT22;18701;45.588;5.288;2023-03-03T13:21:35;8.00;99.90
32201;DHT22;18701;45.588;5.288;2023-03-03T13:24:34;8.00;99.90
32201;DHT22;18701;45.588;5.288;2023-03-03T13:32:21;8.00;99.90
32201;DHT22;18701;45.588;5.288;2023-03-03T13:35:00;8.00;99.90
32201;DHT22;18701;45.588;5.288;2023-03-03T13:37:46;8.00;99.90
32201;DHT22;18701;45.588;5.288;2023-03-03T13:40:17;8.10;99.90
32201;DHT22;18701;45.588;5.288;2023-03-03T13:42:46;7.90;99.90
32201;DHT22;18701;45.588;5.288;2023-03-03T13:48:20;8.00;99.90
32201;DHT22;18701;45.588;5.288;2023-03-03T14:05:15;10.00;99.90
32201;DHT22;18701;45.588;5.288;2023-03-03T14:13:22;9.70;99.90
32201;DHT22;18701;45.588;5.288;2023-03-03T14:16:00;9.90;99.90
32201;DHT22;18701;45.588;5.288;2023-03-03T14:18:38;10.00;99.90
32201;DHT22;18701;45.588;5.288;2023-03-03T14:21:19;10.10;99.90
32201;DHT22;18701;45.588;5.288;2023-03-03T14:26:25;9.60;99.90
32201;DHT22;18701;45.588;5.288;2023-03-03T14:29:09;8.80;99.90
32201;DHT22;18701;45.588;5.288;2023-03-03T14:31:40;8.90;99.90
32201;DHT22;18701;45.588;5.288;2023-03-03T14:36:41;8.30;99.90
32201;DHT22;18701;45.588;5.288;2023-03-03T14:39:34;8.40;99.90
32201;DHT22;18701;45.588;5.288;2023-03-03T14:42:37;8.40;99.90
32201;DHT22;18701;45.588;5.288;2023-03-03T14:47:57;8.50;99.90
32201;DHT22;18701;45.588;5.288;2023-03-03T14:50:33;8.00;99.90
32201;DHT22;18701;45.588;5.288;2023-03-03T14:55:36;8.00;99.90
32201;DHT22;18701;45.588;5.288;2023-03-03T14:58:07;8.00;99.90
32201;DHT22;18701;45.588;5.288;2023-03-03T15:00:47;8.30;99.90
32201;DHT22;18701;45.588;5.288;2023-03-03T15:03:26;8.00;99.90
32201;DHT22;18701;45.588;5.288;2023-03-03T15:05:54;7.80;99.90
32201;DHT22;18701;45.588;5.288;2023-03-03T15:08:40;7.90;99.90
32201;DHT22;18701;45.588;5.288;2023-03-03T15:11:31;7.90;99.90
32201;DHT22;18701;45.588;5.288;2023-03-03T15:14:13;7.90;99.90
32201;DHT22;18701;45.588;5.288;2023-03-03T15:16:39;7.90;99.90
32201;DHT22;18701;45.588;5.288;2023-03-03T15:21:50;7.70;99.90
32201;DHT22;18701;45.588;5.288;2023-03-03T15:24:24;7.70;99.90
32201;DHT22;18701;45.588;5.288;2023-03-03T15:27:23;7.90;99.90
32201;DHT22;18701;45.588;5.288;2023-03-03T15:40:47;7.70;99.90
32201;DHT22;18701;45.588;5.288;2023-03-03T15:43:36;7.70;99.90
32201;DHT22;18701;45.588;5.288;2023-03-03T15:51:51;7.30;99.90
32201;DHT22;18701;45.588;5.288;2023-03-03T15:54:40;7.40;99.90
32201;DHT22;18701;45.588;5.288;2023-03-03T16:00:05;7.30;99.90
32201;DHT22;18701;45.588;5.288;2023-03-03T16:02:53;7.30;99.90
32201;DHT22;18701;45.588;5.288;2023-03-03T16:05:24;7.30;99.90
32201;DHT22;18701;45.588;5.288;2023-03-03T16:08:21;7.30;99.90
32201;DHT22;18701;45.588;5.288;2023-03-03T16:25:16;7.00;99.90
32201;DHT22;18701;45.588;5.288;2023-03-03T16:28:06;7.00;99.90
32201;DHT22;18701;45.588;5.288;2023-03-03T16:33:30;6.90;99.90
32201;DHT22;18701;45.588;5.288;2023-03-03T16:36:02;6.90;99.90
32201;DHT22;18701;45.588;5.288;2023-03-03T16:38:44;6.80;99.90
32201;DHT22;18701;45.588;5.288;2023-03-03T16:41:42;6.90;99.90
32201;DHT22;18701;45.588;5.288;2023-03-03T16:44:13;6.80;99.90
32201;DHT22;18701;45.588;5.288;2023-03-03T16:46:44;6.90;99.90
32201;DHT22;18701;45.588;5.288;2023-03-03T16:52:11;6.90;99.90
32201;DHT22;18701;45.588;5.288;2023-03-03T16:54:54;6.70;99.90
32201;DHT22;18701;45.588;5.288;2023-03-03T16:57:59;6.70;99.90
32201;DHT22;18701;45.588;5.288;2023-03-03T17:00:44;6.80;99.90
32201;DHT22;18701;45.588;5.288;2023-03-03T17:06:19;6.70;99.90
32201;DHT22;18701;45.588;5.288;2023-03-03T17:08:57;6.70;99.90
32201;DHT22;18701;45.588;5.288;2023-03-03T17:11:28;6.80;99.90
32201;DHT22;18701;45.588;5.288;2023-03-03T17:14:12;6.70;99.90
32201;DHT22;18701;45.588;5.288;2023-03-03T17:19:46;6.80;99.90
32201;DHT22;18701;45.588;5.288;2023-03-03T17:22:21;6.70;99.90
32201;DHT22;18701;45.588;5.288;2023-03-03T17:25:02;6.70;99.90
32201;DHT22;18701;45.588;5.288;2023-03-03T17:33:35;6.80;99.90
32201;DHT22;18701;45.588;5.288;2023-03-03T17:44:07;6.60;99.90
32201;DHT22;18701;45.588;5.288;2023-03-03T17:46:44;6.60;99.90
32201;DHT22;18701;45.588;5.288;2023-03-03T17:49:26;6.50;99.90
32201;DHT22;18701;45.588;5.288;2023-03-03T17:57:56;6.60;99.90
32201;DHT22;18701;45.588;5.288;2023-03-03T18:03:40;6.60;99.90
32201;DHT22;18701;45.588;5.288;2023-03-03T18:14:18;6.60;99.90
32201;DHT22;18701;45.588;5.288;2023-03-03T18:21:53;6.40;99.90
32201;DHT22;18701;45.588;5.288;2023-03-03T18:24:36;6.40;99.90
32201;DHT22;18701;45.588;5.288;2023-03-03T18:46:05;6.70;99.90
32201;DHT22;18701;45.588;5.288;2023-03-03T18:48:52;6.70;99.90
32201;DHT22;18701;45.588;5.288;2023-03-03T19:04:41;6.60;99.90
32201;DHT22;18701;45.588;5.288;2023-03-03T19:07:41;6.50;99.90
32201;DHT22;18701;45.588;5.288;2023-03-03T19:12:58;6.20;99.90
32201;DHT22;18701;45.588;5.288;2023-03-03T19:20:23;6.30;99.90
32201;DHT22;18701;45.588;5.288;2023-03-03T19:25:17;6.20;99.90
32201;DHT22;18701;45.588;5.288;2023-03-03T19:33:01;6.10;99.90
32201;DHT22;18701;45.588;5.288;2023-03-03T19:35:53;6.10;99.90
32201;DHT22;18701;45.588;5.288;2023-03-03T19:38:31;6.10;99.90
32201;DHT22;18701;45.588;5.288;2023-03-03T19:52:21;6.40;99.90
32201;DHT22;18701;45.588;5.288;2023-03-03T20:00:48;6.50;99.90
32201;DHT22;18701;45.588;5.288;2023-03-03T20:11:59;6.40;99.90
32201;DHT22;18701;45.588;5.288;2023-03-03T20:17:49;6.50;99.90
32201;DHT22;18701;45.588;5.288;2023-03-03T20:23:27;6.50;99.90
32201;DHT22;18701;45.588;5.288;2023-03-03T20:31:18;6.50;99.90
32201;DHT22;18701;45.588;5.288;2023-03-03T20:44:49;6.40;99.90
32201;DHT22;18701;45.588;5.288;2023-03-03T20:50:26;6.40;99.90
32201;DHT22;18701;45.588;5.288;2023-03-03T20:56:20;6.40;99.90
32201;DHT22;18701;45.588;5.288;2023-03-03T21:01:52;6.40;99.90
32201;DHT22;18701;45.588;5.288;2023-03-03T21:04:27;6.40;99.90
32201;DHT22;18701;45.588;5.288;2023-03-03T21:06:53;6.50;99.90
32201;DHT22;18701;45.588;5.288;2023-03-03T21:09:23;6.40;99.90
32201;DHT22;18701;45.588;5.288;2023-03-03T21:11:49;6.40;99.90
32201;DHT22;18701;45.588;5.288;2023-03-03T21:14:28;6.40;99.90
32201;DHT22;18701;45.588;5.288;2023-03-03T21:16:56;6.40;99.90
32201;DHT22;18701;45.588;5.288;2023-03-03T21:19:33;6.40;99.90
32201;DHT22;18701;45.588;5.288;2023-03-03T21:22:00;6.40;99.90
32201;DHT22;18701;45.588;5.288;2023-03-03T21:24:45;6.40;99.90
32201;DHT22;18701;45.588;5.288;2023-03-03T21:27:31;6.40;99.90
32201;DHT22;18701;45.588;5.288;2023-03-03T21:30:16;6.50;99.90
32201;DHT22;18701;45.588;5.288;2023-03-03T21:32:43;6.50;99.90
32201;DHT22;18701;45.588;5.288;2023-03-03T21:35:12;6.50;99.90
32201;DHT22;18701;45.588;5.288;2023-03-03T21:37:50;6.60;99.90
32201;DHT22;18701;45.588;5.288;2023-03-03T21:40:19;6.60;99.90
32201;DHT22;18701;45.588;5.288;2023-03-03T21:42:47;6.60;99.90
32201;DHT22;18701;45.588;5.288;2023-03-03T21:45:14;6.50;99.90
32201;DHT22;18701;45.588;5.288;2023-03-03T21:47:41;6.50;99.90
32201;DHT22;18701;45.588;5.288;2023-03-03T21:50:07;6.40;99.90
32201;DHT22;18701;45.588;5.288;2023-03-03T21:52:33;6.40;99.90
32201;DHT22;18701;45.588;5.288;2023-03-03T21:54:59;6.50;99.90
32201;DHT22;18701;45.588;5.288;2023-03-03T21:57:25;6.50;99.90
32201;DHT22;18701;45.588;5.288;2023-03-03T21:59:50;6.50;99.90
32201;DHT22;18701;45.588;5.288;2023-03-03T22:02:17;6.50;99.90
32201;DHT22;18701;45.588;5.288;2023-03-03T22:04:43;6.40;99.90
32201;DHT22;18701;45.588;5.288;2023-03-03T22:07:09;6.40;99.90
32201;DHT22;18701;45.588;5.288;2023-03-03T22:09:35;6.40;99.90
32201;DHT22;18701;45.588;5.288;2023-03-03T22:12:01;6.40;99.90
32201;DHT22;18701;45.588;5.288;2023-03-03T22:14:27;6.40;99.90
32201;DHT22;18701;45.588;5.288;2023-03-03T22:16:53;6.40;99.90
32201;DHT22;18701;45.588;5.288;2023-03-03T22:19:18;6.40;99.90
32201;DHT22;18701;45.588;5.288;2023-03-03T22:21:44;6.40;99.90
32201;DHT22;18701;45.588;5.288;2023-03-03T22:24:11;6.40;99.90